createdAt,value
2019-04-25T00:00:48.947Z,1.50
2019-04-25T00:03:19.373Z,1.70
2019-04-25T00:05:48.894Z,1.70
2019-04-25T00:08:18.418Z,1.70
2019-04-25T00:10:47.849Z,1.70
2019-04-25T00:13:17.794Z,1.60
2019-04-25T00:15:48.050Z,1.80
2019-04-25T00:18:17.513Z,1.80
2019-04-25T00:20:52.220Z,1.90
2019-04-25T00:23:21.915Z,1.70
2019-04-25T00:26:16.497Z,1.63
2019-04-25T00:28:46.687Z,1.63
2019-04-25T00:31:16.612Z,1.90
2019-04-25T00:33:46.071Z,2.07
2019-04-25T00:36:15.538Z,1.57
2019-04-25T00:38:47.350Z,1.80
2019-04-25T00:41:16.089Z,1.60
2019-04-25T00:43:45.571Z,1.80
2019-04-25T00:46:14.951Z,1.90
2019-04-25T00:48:44.368Z,1.93
2019-04-25T00:51:13.858Z,1.63
2019-04-25T00:53:43.729Z,1.80
2019-04-25T00:56:14.041Z,1.60
2019-04-25T00:58:59.850Z,1.87
2019-04-25T01:01:47.940Z,1.70
2019-04-25T01:04:18.979Z,1.90
2019-04-25T01:06:48.479Z,1.47
2019-04-25T01:09:18.413Z,1.67
2019-04-25T01:11:47.966Z,1.70
2019-04-25T01:14:17.482Z,2.77
2019-04-25T01:16:46.931Z,7.77
2019-04-25T01:19:16.388Z,8.30
2019-04-25T01:21:45.869Z,14.47
2019-04-25T01:24:15.903Z,2.30
2019-04-25T01:26:45.982Z,1.80
2019-04-25T01:29:15.685Z,2.50
2019-04-25T01:31:46.499Z,1.90
2019-04-25T01:34:17.700Z,2.00
2019-04-25T01:36:55.839Z,2.17
2019-04-25T01:39:44.195Z,2.20
2019-04-25T01:42:38.939Z,2.53
2019-04-25T01:45:09.024Z,2.17
2019-04-25T01:47:38.655Z,2.50
2019-04-25T01:50:08.243Z,2.27
2019-04-25T01:52:37.663Z,2.97
2019-04-25T01:55:07.460Z,2.60
2019-04-25T01:57:36.928Z,2.07
2019-04-25T02:00:07.082Z,2.50
2019-04-25T02:02:36.596Z,2.47
2019-04-25T02:05:07.813Z,5.20
2019-04-25T02:07:37.302Z,2.20
2019-04-25T02:10:07.439Z,2.43
2019-04-25T02:12:43.594Z,2.40
2019-04-25T02:15:14.736Z,2.80
2019-04-25T02:17:44.155Z,2.50
2019-04-25T02:20:14.039Z,3.00
2019-04-25T02:22:44.169Z,3.27
2019-04-25T02:25:13.591Z,4.33
2019-04-25T02:27:44.198Z,3.00
2019-04-25T02:30:15.651Z,2.50
2019-04-25T02:32:45.273Z,2.60
2019-04-25T02:35:15.374Z,2.50
2019-04-25T02:37:45.170Z,2.60
2019-04-25T02:40:16.278Z,2.60
2019-04-25T02:42:45.747Z,2.40
2019-04-25T02:45:34.502Z,2.33
2019-04-25T02:48:34.186Z,2.53
2019-04-25T02:51:18.915Z,2.43
2019-04-25T02:53:49.603Z,2.53
2019-04-25T02:56:30.255Z,2.40
2019-04-25T02:58:50.606Z,2.80
2019-04-25T03:01:25.167Z,2.93
2019-04-25T03:03:51.438Z,2.80
2019-04-25T03:06:20.981Z,2.80
2019-04-25T03:08:50.575Z,2.80
2019-04-25T03:11:20.098Z,2.60
2019-04-25T03:13:49.750Z,3.00
2019-04-25T03:16:19.284Z,2.70
2019-04-25T03:19:02.942Z,2.33
2019-04-25T03:21:35.211Z,2.83
2019-04-25T03:24:07.996Z,2.70
2019-04-25T03:26:40.325Z,3.00
2019-04-25T03:29:07.332Z,3.00
2019-04-25T03:31:36.779Z,2.93
2019-04-25T03:34:10.258Z,3.17
2019-04-25T03:36:37.472Z,3.00
2019-04-25T03:39:08.682Z,2.70
2019-04-25T03:41:38.281Z,2.93
2019-04-25T03:44:08.013Z,2.97
2019-04-25T03:46:37.514Z,2.70
2019-04-25T03:49:07.615Z,3.03
2019-04-25T03:51:37.105Z,2.73
2019-04-25T03:54:08.082Z,3.00
2019-04-25T03:56:37.639Z,2.90
2019-04-25T03:59:07.265Z,3.03
2019-04-25T04:01:36.725Z,3.20
2019-04-25T04:04:07.089Z,3.60
2019-04-25T04:06:37.294Z,3.43
2019-04-25T04:09:08.008Z,3.00
2019-04-25T04:11:37.469Z,3.20
2019-04-25T04:14:07.096Z,3.40
2019-04-25T04:16:39.347Z,2.97
2019-04-25T04:19:08.901Z,3.00
2019-04-25T04:22:00.214Z,3.20
2019-04-25T04:24:40.533Z,3.00
2019-04-25T04:27:12.125Z,2.90
2019-04-25T04:29:43.125Z,3.33
2019-04-25T04:32:14.384Z,3.20
2019-04-25T04:34:45.476Z,3.50
2019-04-25T04:37:16.187Z,4.07
2019-04-25T04:39:45.807Z,3.80
2019-04-25T04:42:16.104Z,3.70
2019-04-25T04:44:45.639Z,3.73
2019-04-25T04:47:15.465Z,3.30
2019-04-25T04:49:45.274Z,3.83
2019-04-25T04:52:15.774Z,3.83
2019-04-25T04:54:45.281Z,3.73
2019-04-25T04:57:26.532Z,4.00
2019-04-25T04:59:45.890Z,4.10
2019-04-25T05:02:35.745Z,3.50
2019-04-25T05:05:43.982Z,3.40
2019-04-25T05:08:33.848Z,3.30
2019-04-25T05:11:04.030Z,4.13
2019-04-25T05:13:34.209Z,4.03
2019-04-25T05:16:03.811Z,3.77
2019-04-25T05:18:38.096Z,3.80
2019-04-25T05:21:04.467Z,3.80
2019-04-25T05:23:34.410Z,3.97
2019-04-25T05:26:04.387Z,4.13
2019-04-25T05:28:34.017Z,4.20
2019-04-25T05:31:15.794Z,4.50
2019-04-25T05:33:44.280Z,13.87
2019-04-25T05:36:14.961Z,9.47
2019-04-25T05:38:45.234Z,9.23
2019-04-25T05:41:25.421Z,4.43
2019-04-25T05:43:54.830Z,5.17
2019-04-25T05:46:25.404Z,4.57
2019-04-25T05:48:55.341Z,4.73
2019-04-25T05:51:25.911Z,4.57
2019-04-25T05:53:55.403Z,4.37
2019-04-25T05:56:26.973Z,4.40
2019-04-25T05:58:56.185Z,4.00
2019-04-25T06:01:28.952Z,4.27
2019-04-25T06:03:56.818Z,4.00
2019-04-25T06:06:26.250Z,4.40
2019-04-25T06:09:04.133Z,3.93
2019-04-25T06:11:58.616Z,4.40
2019-04-25T06:14:28.018Z,4.83
2019-04-25T06:17:01.441Z,5.30
2019-04-25T06:19:55.836Z,4.77
2019-04-25T06:22:33.260Z,4.57
2019-04-25T06:25:12.452Z,4.97
2019-04-25T06:27:44.722Z,4.27
2019-04-25T06:30:22.618Z,9.93
2019-04-25T06:32:53.369Z,4.90
2019-04-25T06:35:24.756Z,3.40
2019-04-25T06:37:54.047Z,3.53
2019-04-25T06:40:24.206Z,3.30
2019-04-25T06:42:55.256Z,3.07
2019-04-25T06:45:42.112Z,5.07
2019-04-25T06:48:33.895Z,6.93
2019-04-25T06:51:04.552Z,2.60
2019-04-25T06:53:34.643Z,1.80
2019-04-25T06:56:04.368Z,2.23
2019-04-25T06:58:34.290Z,2.00
2019-04-25T07:01:03.869Z,12.90
2019-04-25T07:03:35.316Z,2.00
2019-04-25T07:06:04.602Z,2.60
2019-04-25T07:08:35.354Z,2.50
2019-04-25T07:11:04.975Z,2.23
2019-04-25T07:13:38.448Z,2.23
2019-04-25T07:16:05.689Z,2.17
2019-04-25T07:18:37.054Z,2.37
2019-04-25T07:21:06.226Z,2.07
2019-04-25T07:23:35.821Z,2.30
2019-04-25T07:26:18.562Z,2.30
2019-04-25T07:28:56.285Z,2.40
2019-04-25T07:31:50.891Z,2.27
2019-04-25T07:34:23.972Z,1.93
2019-04-25T07:36:53.559Z,2.13
2019-04-25T07:39:23.639Z,1.63
2019-04-25T07:41:54.088Z,1.60
2019-04-25T07:44:36.663Z,1.90
2019-04-25T07:46:54.807Z,1.73
2019-04-25T07:49:24.300Z,2.07
2019-04-25T07:51:53.796Z,1.80
2019-04-25T07:54:23.963Z,2.00
2019-04-25T07:56:55.112Z,1.80
2019-04-25T07:59:24.575Z,1.70
2019-04-25T08:01:54.339Z,1.37
2019-04-25T08:04:23.727Z,1.60
2019-04-25T08:06:54.248Z,1.93
2019-04-25T08:09:24.326Z,1.90
2019-04-25T08:11:54.923Z,1.93
2019-04-25T08:14:47.860Z,1.80
2019-04-25T08:17:30.542Z,1.60
2019-04-25T08:20:00.099Z,1.50
2019-04-25T08:22:30.108Z,1.63
2019-04-25T08:24:59.523Z,1.70
2019-04-25T08:27:28.984Z,1.80
2019-04-25T08:29:58.415Z,1.70
2019-04-25T08:32:27.852Z,1.40
2019-04-25T08:34:57.255Z,1.53
2019-04-25T08:37:26.635Z,2.00
2019-04-25T08:39:56.091Z,1.67
2019-04-25T08:42:25.753Z,1.80
2019-04-25T08:44:55.205Z,1.60
2019-04-25T08:47:24.622Z,1.50
2019-04-25T08:50:28.831Z,1.73
2019-04-25T08:52:50.205Z,1.80
2019-04-25T08:55:37.066Z,1.63
2019-04-25T08:58:28.601Z,2.00
2019-04-25T09:01:23.612Z,2.23
2019-04-25T09:03:59.095Z,1.70
2019-04-25T09:06:28.479Z,1.90
2019-04-25T09:08:57.965Z,1.93
2019-04-25T09:11:27.381Z,2.00
2019-04-25T09:13:56.839Z,1.80
2019-04-25T09:16:26.284Z,1.80
2019-04-25T09:18:55.755Z,1.90
2019-04-25T09:21:25.203Z,2.17
2019-04-25T09:23:54.605Z,2.07
2019-04-25T09:26:24.201Z,2.00
2019-04-25T09:28:53.834Z,2.33
2019-04-25T09:31:23.688Z,2.00
2019-04-25T09:33:55.268Z,2.20
2019-04-25T09:36:24.890Z,2.10
2019-04-25T09:38:56.170Z,1.97
2019-04-25T09:41:25.594Z,1.97
2019-04-25T09:43:58.738Z,2.20
2019-04-25T09:46:31.364Z,2.13
2019-04-25T09:49:14.900Z,2.13
2019-04-25T09:51:54.144Z,2.40
2019-04-25T09:54:38.087Z,2.13
2019-04-25T09:57:26.416Z,2.17
2019-04-25T09:59:55.870Z,1.70
2019-04-25T10:02:26.019Z,2.47
2019-04-25T10:04:55.434Z,1.87
2019-04-25T10:07:24.934Z,2.00
2019-04-25T10:09:54.739Z,2.23
2019-04-25T10:12:24.202Z,2.10
2019-04-25T10:15:06.469Z,2.03
2019-04-25T10:17:35.825Z,1.87
2019-04-25T10:20:05.672Z,2.20
2019-04-25T10:22:35.183Z,2.07
2019-04-25T10:25:05.989Z,1.70
2019-04-25T10:27:35.424Z,1.77
2019-04-25T10:30:16.971Z,1.93
2019-04-25T10:32:36.576Z,2.20
2019-04-25T10:35:06.330Z,1.83
2019-04-25T10:37:35.746Z,1.93
2019-04-25T10:40:06.914Z,1.80
2019-04-25T10:42:36.415Z,1.87
2019-04-25T10:45:06.117Z,2.07
2019-04-25T10:47:35.549Z,1.80
2019-04-25T10:50:05.632Z,1.50
2019-04-25T10:52:35.090Z,1.60
2019-04-25T10:55:04.733Z,1.70
2019-04-25T10:57:34.186Z,1.80
2019-04-25T11:00:08.998Z,1.70
2019-04-25T11:02:36.091Z,1.70
2019-04-25T11:05:11.086Z,1.80
2019-04-25T11:07:40.670Z,1.97
2019-04-25T11:10:10.211Z,1.60
2019-04-25T11:12:40.027Z,1.70
2019-04-25T11:15:09.987Z,1.60
2019-04-25T11:17:39.383Z,1.90
2019-04-25T11:20:10.290Z,2.03
2019-04-25T11:22:39.668Z,1.73
2019-04-25T11:25:09.261Z,1.40
2019-04-25T11:27:38.703Z,1.53
2019-04-25T11:30:11.370Z,2.00
2019-04-25T11:32:40.166Z,1.80
2019-04-25T11:35:09.500Z,2.00
2019-04-25T11:37:39.135Z,1.60
2019-04-25T11:40:14.935Z,1.70
2019-04-25T11:42:45.906Z,1.87
2019-04-25T11:45:15.859Z,1.90
2019-04-25T11:47:46.963Z,2.10
2019-04-25T11:50:16.412Z,1.73
2019-04-25T11:52:46.784Z,1.50
2019-04-25T11:55:16.596Z,1.87
2019-04-25T11:57:49.174Z,1.60
2019-04-25T12:00:22.227Z,1.80
2019-04-25T12:02:52.218Z,1.60
2019-04-25T12:05:23.410Z,1.60
2019-04-25T12:07:53.038Z,1.77
2019-04-25T12:10:24.236Z,1.93
2019-04-25T12:12:53.839Z,1.90
2019-04-25T12:15:24.106Z,1.70
2019-04-25T12:17:54.701Z,1.70
2019-04-25T12:20:24.801Z,1.80
2019-04-25T12:23:04.132Z,2.00
2019-04-25T12:25:25.337Z,2.03
2019-04-25T12:27:54.839Z,1.93
2019-04-25T12:30:36.385Z,1.67
2019-04-25T12:32:55.451Z,1.80
2019-04-25T12:35:24.877Z,1.73
2019-04-25T12:37:55.290Z,1.93
2019-04-25T12:40:25.460Z,1.97
2019-04-25T12:42:54.884Z,1.80
2019-04-25T12:45:43.421Z,1.80
2019-04-25T12:48:14.925Z,1.80
2019-04-25T12:50:44.358Z,2.10
2019-04-25T12:53:13.974Z,1.73
2019-04-25T12:55:44.275Z,1.80
2019-04-25T12:58:13.855Z,1.53
2019-04-25T13:00:51.242Z,1.73
2019-04-25T13:03:14.450Z,1.80
2019-04-25T13:05:44.285Z,1.63
2019-04-25T13:08:14.307Z,2.17
2019-04-25T13:10:44.437Z,2.30
2019-04-25T13:13:15.363Z,2.23
2019-04-25T13:15:46.098Z,1.50
2019-04-25T13:18:15.509Z,1.50
2019-04-25T13:20:44.888Z,1.57
2019-04-25T13:23:14.495Z,1.80
2019-04-25T13:25:44.237Z,1.33
2019-04-25T13:28:45.545Z,1.40
2019-04-25T13:31:33.909Z,1.60
2019-04-25T13:34:35.219Z,1.50
2019-04-25T13:36:54.208Z,1.20
2019-04-25T13:39:24.776Z,1.30
2019-04-25T13:41:54.700Z,1.40
2019-04-25T13:44:25.426Z,1.43
2019-04-25T13:46:54.876Z,1.83
2019-04-25T13:49:25.034Z,1.10
2019-04-25T13:51:54.582Z,1.50
2019-04-25T13:54:24.990Z,1.47
2019-04-25T13:56:54.495Z,1.60
2019-04-25T13:59:23.959Z,1.50
2019-04-25T14:01:57.601Z,1.30
2019-04-25T14:04:26.967Z,1.70
2019-04-25T14:06:57.419Z,1.23
2019-04-25T14:09:27.453Z,1.30
2019-04-25T14:11:56.855Z,1.47
2019-04-25T14:14:26.807Z,1.40
2019-04-25T14:17:21.646Z,1.37
2019-04-25T14:20:10.791Z,1.43
2019-04-25T14:22:40.246Z,1.30
2019-04-25T14:25:10.166Z,1.43
2019-04-25T14:27:39.663Z,1.23
2019-04-25T14:30:10.779Z,1.70
2019-04-25T14:32:40.221Z,1.40
2019-04-25T14:35:09.860Z,1.40
2019-04-25T14:37:39.830Z,1.50
2019-04-25T14:40:11.084Z,1.60
2019-04-25T14:42:40.603Z,1.60
2019-04-25T14:45:11.065Z,1.60
2019-04-25T14:47:40.589Z,1.60
2019-04-25T14:50:10.172Z,1.70
2019-04-25T14:52:40.753Z,1.60
2019-04-25T14:55:44.389Z,1.40
2019-04-25T14:58:15.912Z,1.70
2019-04-25T15:00:46.695Z,1.40
2019-04-25T15:03:16.337Z,1.60
2019-04-25T15:05:45.835Z,1.47
2019-04-25T15:08:15.383Z,1.57
2019-04-25T15:10:48.331Z,1.60
2019-04-25T15:13:17.068Z,1.63
2019-04-25T15:15:46.533Z,1.70
2019-04-25T15:18:16.146Z,1.67
2019-04-25T15:20:45.647Z,1.40
2019-04-25T15:23:15.136Z,1.90
2019-04-25T15:25:44.598Z,1.57
2019-04-25T15:28:14.324Z,1.80
2019-04-25T15:30:44.076Z,1.57
2019-04-25T15:33:16.314Z,1.70
2019-04-25T15:35:54.741Z,1.73
2019-04-25T15:38:31.380Z,1.67
2019-04-25T15:41:16.336Z,1.73
2019-04-25T15:44:03.205Z,1.90
2019-04-25T15:46:34.893Z,1.27
2019-04-25T15:49:04.356Z,1.60
2019-04-25T15:51:33.868Z,1.93
2019-04-25T15:54:03.567Z,2.00
2019-04-25T15:56:33.268Z,2.20
2019-04-25T15:59:02.928Z,2.27
2019-04-25T16:01:32.592Z,1.80
2019-04-25T16:04:02.112Z,1.80
2019-04-25T16:06:31.938Z,1.80
2019-04-25T16:09:01.457Z,1.53
2019-04-25T16:11:30.918Z,1.80
2019-04-25T16:14:00.453Z,1.57
2019-04-25T16:16:30.354Z,1.70
2019-04-25T16:19:00.019Z,1.77
2019-04-25T16:21:29.483Z,1.80
2019-04-25T16:23:59.180Z,1.90
2019-04-25T16:26:29.505Z,1.90
2019-04-25T16:28:59.246Z,1.90
2019-04-25T16:31:29.171Z,1.80
2019-04-25T16:33:58.789Z,1.50
2019-04-25T16:36:28.294Z,1.80
2019-04-25T16:38:57.881Z,2.20
2019-04-25T16:41:27.597Z,1.80
2019-04-25T16:44:02.686Z,1.77
2019-04-25T16:46:32.303Z,1.70
2019-04-25T16:49:01.661Z,1.50
2019-04-25T16:51:31.186Z,1.90
2019-04-25T16:54:00.679Z,1.80
2019-04-25T16:56:30.581Z,1.80
2019-04-25T16:59:00.051Z,1.77
2019-04-25T17:01:30.388Z,1.53
2019-04-25T17:03:59.819Z,1.57
2019-04-25T17:06:30.113Z,2.10
2019-04-25T17:08:59.954Z,1.93
2019-04-25T17:11:29.529Z,1.77
2019-04-25T17:14:11.310Z,2.10
2019-04-25T17:16:55.349Z,1.83
2019-04-25T17:19:35.192Z,2.63
2019-04-25T17:22:04.774Z,2.10
2019-04-25T17:24:34.603Z,1.80
2019-04-25T17:27:04.515Z,2.13
2019-04-25T17:29:34.589Z,2.07
2019-04-25T17:32:21.398Z,1.83
2019-04-25T17:35:09.805Z,1.67
2019-04-25T17:37:43.877Z,1.83
2019-04-25T17:40:21.127Z,2.07
2019-04-25T17:42:50.782Z,1.97
2019-04-25T17:45:24.879Z,1.80
2019-04-25T17:47:55.101Z,1.80
2019-04-25T17:50:24.927Z,1.93
2019-04-25T17:52:54.489Z,2.13
2019-04-25T17:55:24.052Z,1.90
2019-04-25T17:57:53.484Z,2.13
2019-04-25T18:00:31.692Z,2.07
2019-04-25T18:03:01.166Z,2.10
2019-04-25T18:05:30.728Z,1.80
2019-04-25T18:08:00.371Z,2.30
2019-04-25T18:10:30.144Z,2.23
2019-04-25T18:12:59.899Z,2.10
2019-04-25T18:15:48.818Z,2.10
2019-04-25T18:18:39.117Z,2.73
2019-04-25T18:21:11.275Z,2.80
2019-04-25T18:24:17.211Z,2.30
2019-04-25T18:27:11.531Z,2.30
2019-04-25T18:29:44.353Z,2.30
2019-04-25T18:32:24.070Z,2.10
2019-04-25T18:35:12.070Z,2.37
2019-04-25T18:38:07.302Z,2.60
2019-04-25T18:41:00.058Z,2.83
2019-04-25T18:43:56.657Z,3.07
2019-04-25T18:46:30.347Z,3.40
2019-04-25T18:49:00.877Z,3.00
2019-04-25T18:51:34.323Z,2.67
2019-04-25T18:54:33.323Z,2.30
2019-04-25T18:57:16.026Z,2.40
2019-04-25T18:59:59.438Z,2.77
2019-04-25T19:03:02.011Z,2.77
2019-04-25T19:06:03.179Z,2.60
2019-04-25T19:09:23.802Z,2.90
2019-04-25T19:11:45.001Z,3.17
2019-04-25T19:14:15.720Z,3.20
2019-04-25T19:16:45.798Z,2.30
2019-04-25T19:19:32.117Z,2.63
2019-04-25T19:21:51.974Z,2.23
2019-04-25T19:24:27.353Z,2.87
2019-04-25T19:27:22.976Z,1.97
2019-04-25T19:29:45.947Z,2.20
2019-04-25T19:32:16.142Z,2.37
2019-04-25T19:34:57.676Z,2.40
2019-04-25T19:37:28.789Z,2.53
2019-04-25T19:40:26.199Z,2.20
2019-04-25T19:42:59.306Z,2.03
2019-04-25T19:45:28.907Z,2.23
2019-04-25T19:47:58.731Z,2.30
2019-04-25T19:50:28.371Z,2.27
2019-04-25T19:52:58.012Z,2.20
2019-04-25T19:55:32.888Z,2.40
2019-04-25T19:58:02.548Z,2.40
2019-04-25T20:00:32.918Z,2.43
2019-04-25T20:03:13.840Z,2.70
2019-04-25T20:06:05.370Z,2.33
2019-04-25T20:08:58.018Z,2.47
2019-04-25T20:11:32.247Z,2.43
2019-04-25T20:14:02.150Z,2.70
2019-04-25T20:16:34.541Z,3.20
2019-04-25T20:19:04.323Z,2.20
2019-04-25T20:21:34.351Z,2.53
2019-04-25T20:24:04.508Z,2.20
2019-04-25T20:26:37.208Z,2.90
2019-04-25T20:29:14.843Z,2.37
2019-04-25T20:31:45.177Z,2.10
2019-04-25T20:34:14.932Z,2.87
2019-04-25T20:36:45.744Z,2.73
2019-04-25T20:39:15.584Z,3.23
2019-04-25T20:41:45.439Z,2.43
2019-04-25T20:44:16.758Z,2.40
2019-04-25T20:46:46.728Z,2.30
2019-04-25T20:49:17.811Z,3.97
2019-04-25T20:51:48.439Z,2.77
2019-04-25T20:54:18.246Z,2.63
2019-04-25T20:56:50.979Z,2.70
2019-04-25T20:59:20.450Z,2.40
2019-04-25T21:01:53.525Z,2.30
2019-04-25T21:04:42.073Z,2.43
2019-04-25T21:07:12.061Z,2.77
2019-04-25T21:09:43.920Z,2.50
2019-04-25T21:12:13.716Z,2.00
2019-04-25T21:15:11.445Z,2.30
2019-04-25T21:17:58.460Z,2.40
2019-04-25T21:20:28.292Z,2.20
2019-04-25T21:22:57.914Z,2.10
2019-04-25T21:25:27.548Z,2.07
2019-04-25T21:27:57.176Z,2.43
2019-04-25T21:30:26.785Z,2.37
2019-04-25T21:32:57.423Z,2.07
2019-04-25T21:35:27.556Z,2.10
2019-04-25T21:37:57.530Z,2.30
2019-04-25T21:40:46.730Z,1.97
2019-04-25T21:43:21.100Z,2.30
2019-04-25T21:45:51.906Z,1.83
2019-04-25T21:48:23.042Z,1.70
2019-04-25T21:50:53.667Z,2.13
2019-04-25T21:53:23.718Z,1.90
2019-04-25T21:55:54.555Z,2.17
2019-04-25T21:58:25.042Z,2.30
2019-04-25T22:01:09.618Z,2.43
2019-04-25T22:03:39.214Z,1.93
2019-04-25T22:06:09.021Z,1.90
2019-04-25T22:08:38.858Z,2.37
2019-04-25T22:11:08.542Z,1.73
2019-04-25T22:13:38.562Z,2.10
2019-04-25T22:16:08.513Z,1.73
2019-04-25T22:18:38.413Z,1.97
2019-04-25T22:21:08.060Z,1.70
2019-04-25T22:23:39.239Z,1.93
2019-04-25T22:26:09.349Z,1.83
2019-04-25T22:28:39.155Z,2.00
2019-04-25T22:31:18.760Z,1.60
2019-04-25T22:34:13.382Z,2.03
2019-04-25T22:36:43.441Z,1.80
2019-04-25T22:39:13.307Z,2.10
2019-04-25T22:41:48.036Z,1.83
2019-04-25T22:44:19.552Z,1.43
2019-04-25T22:46:49.787Z,1.60
2019-04-25T22:49:22.705Z,1.60
2019-04-25T22:51:52.528Z,1.97
2019-04-25T22:54:23.495Z,1.50
2019-04-25T22:56:53.193Z,1.60
2019-04-25T22:59:23.150Z,1.90
2019-04-25T23:02:05.445Z,1.90
2019-04-25T23:05:05.426Z,2.07
2019-04-25T23:07:28.629Z,2.30
2019-04-25T23:09:58.452Z,1.80
2019-04-25T23:12:28.433Z,1.70
2019-04-25T23:14:58.081Z,1.90
2019-04-25T23:17:27.669Z,1.50
2019-04-25T23:20:00.335Z,1.60
2019-04-25T23:22:30.065Z,1.70
2019-04-25T23:25:05.948Z,1.77
2019-04-25T23:28:06.543Z,1.67
2019-04-25T23:30:41.727Z,1.60
2019-04-25T23:33:11.337Z,1.90
2019-04-25T23:35:42.290Z,1.53
2019-04-25T23:38:13.596Z,1.70
2019-04-25T23:41:02.181Z,1.87
2019-04-25T23:43:31.925Z,1.80
2019-04-25T23:46:01.573Z,1.50
2019-04-25T23:48:34.407Z,1.50
2019-04-25T23:51:08.761Z,1.40
2019-04-25T23:53:38.931Z,1.53
2019-04-25T23:56:08.938Z,1.80
2019-04-25T23:58:38.813Z,1.43
